Time;durP1;ratioP1;P1;durP2;ratioP2;P2;SDS_P1;SDS_P2;PMS_P1;PMS_P2;Temp;Humidity;BMP_temperature;BMP_pressure;BME280_temperature;BME280_humidity;BME280_pressure;Samples;Min_cycle;Max_cycle;Signal;HPM_P1;HPM_P2
2023/01/29 00:00:47;;;;;;;2.38;1.55;;;;;;;3.54;80.53;103166.78;5056434;27;96525;-29
2023/01/29 00:03:12;;;;;;;2.55;1.70;;;;;;;3.51;79.82;103170.34;5056823;27;96885;-29
2023/01/29 00:05:37;;;;;;;1.30;1.20;;;;;;;3.50;80.03;103164.94;5056580;27;99223;-29
2023/01/29 00:08:03;;;;;;;3.10;2.13;;;;;;;3.50;80.37;103159.59;5056680;27;97829;-29
2023/01/29 00:10:28;;;;;;;1.13;1.00;;;;;;;3.48;80.80;103150.66;5057322;27;96536;-29
2023/01/29 00:12:54;;;;;;;1.80;1.50;;;;;;;3.52;80.25;103153.34;5056969;27;96782;-29
2023/01/29 00:15:19;;;;;;;2.88;1.80;;;;;;;3.52;80.75;103150.69;5056449;27;97892;-29
2023/01/29 00:17:44;;;;;;;1.73;1.55;;;;;;;3.51;80.64;103151.56;5056664;27;97277;-29
2023/01/29 00:20:10;;;;;;;1.80;1.40;;;;;;;3.52;80.60;103142.63;5056689;27;96521;-29
2023/01/29 00:22:36;;;;;;;1.50;1.38;;;;;;;3.54;80.70;103138.19;5056543;27;96858;-28
2023/01/29 00:25:01;;;;;;;2.55;1.55;;;;;;;3.52;80.65;103136.38;5054995;27;97854;-29
2023/01/29 00:27:27;;;;;;;2.47;1.77;;;;;;;3.52;80.49;103133.72;5056277;27;98186;-28
2023/01/29 00:32:35;;;;;;;3.05;1.58;;;;;;;3.44;81.16;103127.44;5056631;27;96598;-29
2023/01/29 00:35:01;;;;;;;2.78;1.80;;;;;;;3.44;80.79;103128.31;5056203;27;97860;-28
2023/01/29 00:37:26;;;;;;;1.50;1.13;;;;;;;3.46;81.09;103125.66;5056217;27;98055;-28
2023/01/29 00:39:51;;;;;;;2.13;1.73;;;;;;;3.50;81.00;103139.06;5056686;27;96479;-29
2023/01/29 00:45:01;;;;;;;2.22;1.42;;;;;;;3.56;80.86;103148.94;5056378;27;97107;-30
2023/01/29 00:47:29;;;;;;;1.20;1.08;;;;;;;3.54;80.88;103137.31;5054527;27;100803;-29
2023/01/29 00:49:55;;;;;;;2.75;1.67;;;;;;;3.54;81.12;103118.53;5054388;27;96621;-29
2023/01/29 00:52:24;;;;;;;3.22;2.15;;;;;;;3.51;81.30;103115.84;5056160;27;96754;-28
2023/01/29 00:54:58;;;;;;;2.78;1.92;;;;;;;3.50;81.65;103116.72;5054024;27;101207;-29
2023/01/29 00:57:25;;;;;;;1.80;1.20;;;;;;;3.48;81.69;103113.13;5054101;27;101157;-29
2023/01/29 00:59:51;;;;;;;2.53;2.15;;;;;;;3.46;81.16;103113.16;5054581;27;96553;-28
2023/01/29 01:05:04;;;;;;;1.15;1.05;;;;;;;3.52;81.28;103096.19;5055968;27;97062;-31
2023/01/29 01:07:30;;;;;;;1.73;1.08;;;;;;;3.49;81.42;103105.13;5054532;27;100712;-29
2023/01/29 01:12:40;;;;;;;2.92;1.73;;;;;;;3.54;81.26;103102.47;5056310;27;96500;-28
2023/01/29 01:15:05;;;;;;;1.38;1.23;;;;;;;3.56;81.36;103100.69;5055098;27;98053;-29
2023/01/29 01:17:31;;;;;;;1.52;1.38;;;;;;;3.55;81.16;103099.81;5053966;27;100724;-29
2023/01/29 01:19:56;;;;;;;1.55;1.33;;;;;;;3.55;80.63;103098.88;5055714;27;96750;-29
2023/01/29 01:22:21;;;;;;;1.38;1.27;;;;;;;3.55;81.11;103104.25;5055732;27;96873;-29
2023/01/29 01:24:47;;;;;;;1.83;1.42;;;;;;;3.56;80.95;103106.06;5055006;27;99233;-28
2023/01/29 01:27:12;;;;;;;2.35;1.55;;;;;;;3.56;81.08;103106.94;5055287;27;97170;-29
2023/01/29 01:29:38;;;;;;;1.40;1.10;;;;;;;3.58;81.02;103110.53;5055509;27;96673;-28
2023/01/29 01:32:04;;;;;;;1.50;1.23;;;;;;;3.56;80.98;103109.63;5055867;27;96766;-28
2023/01/29 01:34:30;;;;;;;1.25;1.05;;;;;;;3.54;81.31;103114.06;5053587;27;101045;-28
2023/01/29 01:36:55;;;;;;;3.05;1.40;;;;;;;3.54;81.33;103118.53;5055355;27;97299;-29
2023/01/29 01:39:21;;;;;;;1.95;1.70;;;;;;;3.54;81.12;103127.47;5055055;27;96563;-29
2023/01/29 01:41:46;;;;;;;1.83;1.38;;;;;;;3.54;81.43;103123.91;5054010;27;96707;-29
2023/01/29 01:44:51;;;;;;;3.38;2.05;;;;;;;3.53;81.63;103127.50;5055283;27;97335;-28
2023/01/29 01:47:20;;;;;;;2.00;1.42;;;;;;;3.53;81.87;103127.50;5054596;27;99156;-28
2023/01/29 01:49:46;;;;;;;3.90;1.58;;;;;;;3.50;81.52;103124.75;5053940;27;96479;-28
2023/01/29 01:52:15;;;;;;;2.28;1.73;;;;;;;3.52;81.58;103123.00;5054594;27;96726;-30
2023/01/29 01:54:42;;;;;;;1.48;1.23;;;;;;;3.52;81.68;103134.59;5053087;27;100874;-28
2023/01/29 01:57:17;;;;;;;1.58;1.42;;;;;;;3.53;82.19;103127.50;5053880;27;100829;-28
2023/01/29 01:59:49;;;;;;;2.70;1.38;;;;;;;3.54;81.57;103118.53;5053845;27;96543;-29
2023/01/29 02:10:38;;;;;;;1.90;1.63;;;;;;;3.44;81.81;103106.91;5055576;27;96583;-28
2023/01/29 02:13:05;;;;;;;2.20;1.40;;;;;;;3.46;81.52;103109.59;5053634;27;96659;-28
2023/01/29 02:15:30;;;;;;;2.13;1.60;;;;;;;3.48;81.74;103107.78;5054658;27;97979;-29
2023/01/29 02:17:56;;;;;;;1.88;1.33;;;;;;;3.44;81.49;103106.00;5054601;27;99097;-29
2023/01/29 02:20:27;;;;;;;1.92;1.38;;;;;;;3.48;81.46;103113.13;5054867;27;96563;-28
2023/01/29 02:22:54;;;;;;;1.98;1.45;;;;;;;3.49;81.51;103104.25;5053338;27;96770;-28
2023/01/29 02:25:50;;;;;;;1.42;1.33;;;;;;;3.47;81.44;103097.97;5054118;27;97932;-29
2023/01/29 02:28:25;;;;;;;1.90;1.70;;;;;;;3.50;81.50;103106.00;5053063;27;101050;-28
2023/01/29 02:31:18;;;;;;;2.35;1.63;;;;;;;3.47;81.54;103104.22;5054478;27;96553;-29
2023/01/29 02:34:14;;;;;;;2.80;1.95;;;;;;;3.46;81.81;103109.59;5054737;27;96739;-29
2023/01/29 02:37:02;;;;;;;1.58;1.27;;;;;;;3.48;81.68;103115.81;5054404;27;97942;-30
2023/01/29 02:39:36;;;;;;;1.05;0.98;;;;;;;3.44;81.52;103103.31;5052629;27;100828;-29
2023/01/29 02:42:20;;;;;;;1.98;1.73;;;;;;;3.45;81.81;103097.94;5053139;27;96614;-29
2023/01/29 02:44:55;;;;;;;2.08;1.65;;;;;;;3.45;81.41;103107.78;5053231;27;96710;-29
2023/01/29 02:47:41;;;;;;;1.67;1.35;;;;;;;3.48;81.73;103107.78;5053015;27;101051;-28
2023/01/29 02:50:32;;;;;;;3.20;2.47;;;;;;;3.46;81.95;103104.22;5054919;27;97288;-29
2023/01/29 02:53:12;;;;;;;3.92;2.15;;;;;;;3.42;81.50;103105.09;5053228;27;96756;-28
2023/01/29 02:55:47;;;;;;;2.05;1.75;;;;;;;3.44;81.61;103103.31;5052827;27;96888;-31
2023/01/29 02:58:26;;;;;;;2.00;1.17;;;;;;;3.43;81.76;103094.38;5052177;27;100809;-29
2023/01/29 03:00:54;;;;;;;2.20;1.98;;;;;;;3.44;81.96;103109.56;5052765;27;100747;-31
2023/01/29 03:03:27;;;;;;;2.00;1.48;;;;;;;3.41;81.51;103101.53;5052843;27;96722;-28
2023/01/29 03:06:07;;;;;;;2.22;1.75;;;;;;;3.44;81.49;103104.22;5056550;27;96664;-29
2023/01/29 03:08:44;;;;;;;2.05;1.85;;;;;;;3.43;81.86;103093.47;5057618;27;97918;-29
2023/01/29 03:11:14;;;;;;;2.25;1.95;;;;;;;3.42;81.58;103099.75;5057429;27;99294;-30
2023/01/29 03:14:05;;;;;;;1.55;1.45;;;;;;;3.44;82.02;103097.97;5056186;27;96566;-29
2023/01/29 03:16:37;;;;;;;1.33;1.23;;;;;;;3.42;82.30;103089.91;5057446;27;96952;-29
2023/01/29 03:19:15;;;;;;;1.33;1.23;;;;;;;3.43;81.86;103096.16;5055738;27;100830;-29
2023/01/29 03:21:58;;;;;;;2.15;1.38;;;;;;;3.43;81.79;103096.16;5055935;27;101008;-28
2023/01/29 03:33:07;;;;;;;1.65;1.25;;;;;;;3.38;81.93;103090.78;5057586;27;97050;-28
2023/01/29 03:35:38;;;;;;;2.15;1.48;;;;;;;3.37;82.12;103091.69;5056088;27;96546;-29
2023/01/29 03:38:08;;;;;;;2.33;1.42;;;;;;;3.39;82.27;103084.56;5056050;27;96894;-28
2023/01/29 03:41:03;;;;;;;1.77;1.67;;;;;;;3.38;82.41;103083.66;5057540;27;97392;-29
2023/01/29 03:43:49;;;;;;;1.98;1.80;;;;;;;3.36;82.10;103074.72;5042994;27;99737;-28
2023/01/29 03:46:30;;;;;;;2.67;1.85;;;;;;;3.36;81.87;103074.72;5055716;27;96609;-29
2023/01/29 03:49:07;;;;;;;2.13;1.88;;;;;;;3.35;82.10;103074.69;5055913;27;96700;-28
2023/01/29 03:51:46;;;;;;;3.47;2.00;;;;;;;3.35;82.50;103088.97;5055036;27;100757;-30
2023/01/29 03:54:28;;;;;;;1.98;1.65;;;;;;;3.35;82.29;103080.06;5056449;27;97828;-29
2023/01/29 03:57:16;;;;;;;1.50;1.35;;;;;;;3.37;82.34;103079.16;5055691;27;96544;-29
2023/01/29 03:59:48;;;;;;;1.75;1.65;;;;;;;3.35;82.25;103070.22;5055540;27;96788;-28
2023/01/29 04:02:29;;;;;;;3.28;2.28;;;;;;;3.34;82.10;103063.09;5055444;27;100949;-29
2023/01/29 04:05:04;;;;;;;2.20;1.75;;;;;;;3.36;82.18;103066.69;5055242;27;100862;-29
2023/01/29 04:07:32;;;;;;;1.88;1.65;;;;;;;3.34;82.56;103052.38;5055412;27;96748;-28
2023/01/29 04:10:16;;;;;;;1.58;1.42;;;;;;;3.36;82.28;103058.66;5055844;27;96773;-28
2023/01/29 04:12:49;;;;;;;2.28;1.50;;;;;;;3.34;82.23;103056.84;5056425;27;100042;-29
2023/01/29 04:15:16;;;;;;;1.70;1.33;;;;;;;3.33;82.49;103047.91;5054096;27;101113;-30
2023/01/29 04:17:52;;;;;;;2.20;1.80;;;;;;;3.32;82.70;103045.25;5054586;27;96596;-29
2023/01/29 04:20:19;;;;;;;1.35;1.25;;;;;;;3.29;82.32;103042.53;5056558;27;96751;-28
2023/01/29 04:22:47;;;;;;;2.70;1.92;;;;;;;3.31;82.58;103051.47;5054754;27;100897;-28
2023/01/29 04:25:25;;;;;;;3.15;2.00;;;;;;;3.30;82.35;103049.69;5054558;27;101198;-31
2023/01/29 04:27:56;;;;;;;2.38;2.08;;;;;;;3.32;82.41;103051.47;5055039;27;96635;-29
2023/01/29 04:30:29;;;;;;;2.83;2.33;;;;;;;3.33;82.60;103039.88;5056824;27;96644;-28
2023/01/29 04:33:32;;;;;;;3.55;2.22;;;;;;;3.33;82.71;103037.19;5056207;27;97882;-28
2023/01/29 04:36:25;;;;;;;1.20;0.82;;;;;;;3.32;82.64;103027.38;5056331;27;97834;-29
2023/01/29 04:39:01;;;;;;;2.10;1.90;;;;;;;3.31;82.55;103039.00;5056424;27;97367;-28
2023/01/29 04:41:44;;;;;;;2.75;2.22;;;;;;;3.32;81.97;103035.41;5054970;27;96814;-28
2023/01/29 04:44:20;;;;;;;1.52;1.38;;;;;;;3.32;82.76;103031.84;5054158;27;101057;-28
2023/01/29 04:47:02;;;;;;;2.05;1.40;;;;;;;3.32;82.52;103023.81;5054690;27;100432;-28
2023/01/29 04:49:41;;;;;;;2.40;1.95;;;;;;;3.29;82.36;103022.00;5054857;27;96670;-29
2023/01/29 04:52:22;;;;;;;1.70;1.60;;;;;;;3.31;82.64;103013.97;5056542;27;96635;-29
2023/01/29 04:55:07;;;;;;;2.55;1.60;;;;;;;3.30;82.45;103017.53;5055275;27;97969;-30
2023/01/29 04:57:46;;;;;;;1.77;1.45;;;;;;;3.28;82.68;103009.50;5054380;27;100938;-28
2023/01/29 05:00:26;;;;;;;2.25;1.92;;;;;;;3.27;82.36;103010.41;5054742;27;96458;-28
2023/01/29 05:02:52;;;;;;;2.28;1.45;;;;;;;3.30;82.07;103004.16;5056514;27;96564;-28
2023/01/29 05:05:19;;;;;;;3.63;2.15;;;;;;;3.27;82.51;102996.13;5053811;27;101032;-29
2023/01/29 05:07:46;;;;;;;1.95;1.27;;;;;;;3.25;82.30;102998.78;5054145;27;101228;-28
2023/01/29 05:10:14;;;;;;;4.22;2.67;;;;;;;3.25;82.55;102998.78;5054072;27;96826;-28
2023/01/29 05:12:44;;;;;;;1.80;1.67;;;;;;;3.25;82.46;102998.78;5054355;27;96923;-28
2023/01/29 05:15:15;;;;;;;3.58;1.85;;;;;;;3.28;82.29;102996.09;5054052;27;98997;-29
2023/01/29 05:17:41;;;;;;;1.67;1.52;;;;;;;3.28;82.54;103001.47;5055568;27;97917;-28
2023/01/29 05:20:09;;;;;;;3.30;2.22;;;;;;;3.28;82.60;102993.44;5055845;27;96474;-29
2023/01/29 05:22:38;;;;;;;2.53;2.08;;;;;;;3.29;82.23;102992.56;5055491;27;96742;-28
2023/01/29 05:25:19;;;;;;;3.20;2.38;;;;;;;3.28;82.26;102989.84;5053585;27;101282;-29
2023/01/29 05:30:28;;;;;;;2.28;1.90;;;;;;;3.28;82.16;102992.53;5055872;27;96552;-29
2023/01/29 05:32:54;;;;;;;2.55;1.60;;;;;;;3.32;82.25;102989.88;5054176;27;96817;-29
2023/01/29 05:35:19;;;;;;;2.45;1.90;;;;;;;3.33;82.27;102985.41;5054874;27;98440;-28
2023/01/29 05:37:44;;;;;;;2.92;1.90;;;;;;;3.32;82.29;102984.53;5055180;27;97704;-29
2023/01/29 05:40:10;;;;;;;2.70;2.03;;;;;;;3.28;82.45;102977.34;5055456;27;96703;-29
2023/01/29 05:42:36;;;;;;;2.78;2.15;;;;;;;3.32;82.58;102984.53;5055466;27;96783;-30
2023/01/29 05:45:01;;;;;;;2.05;1.77;;;;;;;3.31;82.26;102990.78;5054894;27;99264;-29
2023/01/29 05:47:26;;;;;;;1.98;1.60;;;;;;;3.28;82.29;102984.50;5055357;27;97820;-29
2023/01/29 05:49:52;;;;;;;1.60;1.50;;;;;;;3.29;82.27;102992.56;5055726;27;96532;-29
2023/01/29 05:52:17;;;;;;;1.98;1.77;;;;;;;3.30;82.35;102990.75;5055877;27;96793;-29
2023/01/29 05:54:42;;;;;;;2.80;2.08;;;;;;;3.29;82.01;102972.88;5054749;27;97924;-28
2023/01/29 05:57:08;;;;;;;1.52;1.23;;;;;;;3.27;82.33;102977.38;5054732;27;99244;-28
2023/01/29 05:59:33;;;;;;;3.55;2.05;;;;;;;3.27;82.47;102988.09;5054559;27;96584;-28
2023/01/29 06:01:58;;;;;;;2.20;1.90;;;;;;;3.29;82.26;102988.97;5055342;27;96734;-28
2023/01/29 06:04:24;;;;;;;2.20;1.88;;;;;;;3.27;82.22;102978.25;5054637;27;99052;-28
2023/01/29 06:06:49;;;;;;;1.38;1.10;;;;;;;3.27;82.38;102975.59;5054790;27;97786;-29
2023/01/29 06:09:14;;;;;;;2.67;1.80;;;;;;;3.28;82.47;102972.00;5055125;27;96592;-29
2023/01/29 06:11:40;;;;;;;2.28;1.92;;;;;;;3.29;82.44;102975.56;5055001;27;96787;-28
2023/01/29 06:14:05;;;;;;;2.10;1.77;;;;;;;3.30;82.35;102985.41;5054721;27;97858;-29
2023/01/29 06:16:30;;;;;;;2.60;1.33;;;;;;;3.31;82.64;102988.09;5054889;27;99163;-28
2023/01/29 06:18:56;;;;;;;2.03;1.73;;;;;;;3.28;82.83;102973.78;5055150;27;96719;-29
2023/01/29 06:21:21;;;;;;;2.08;1.52;;;;;;;3.28;82.50;102982.72;5055020;27;96504;-28
2023/01/29 06:23:46;;;;;;;2.13;1.85;;;;;;;3.29;82.22;102978.25;5054009;27;97438;-29
2023/01/29 06:26:13;;;;;;;2.35;1.95;;;;;;;3.26;82.70;102967.53;5054327;27;97821;-30
2023/01/29 06:28:39;;;;;;;2.78;2.22;;;;;;;3.25;82.68;102960.41;5053310;27;96677;-29
2023/01/29 06:31:06;;;;;;;2.55;1.77;;;;;;;3.25;82.39;102961.28;5054590;27;97150;-29
2023/01/29 06:33:31;;;;;;;2.65;1.85;;;;;;;3.24;82.30;102967.50;5053116;27;100890;-28
2023/01/29 06:35:57;;;;;;;2.80;1.80;;;;;;;3.28;82.43;102961.28;5054282;27;99111;-29
2023/01/29 06:38:24;;;;;;;1.20;1.10;;;;;;;3.28;82.66;102961.28;5053300;27;96790;-29
2023/01/29 06:40:49;;;;;;;2.15;1.52;;;;;;;3.24;82.42;102946.09;5057223;27;96788;-29
2023/01/29 06:43:14;;;;;;;2.30;1.88;;;;;;;3.27;82.46;102959.50;5057548;27;99341;-29
2023/01/29 06:45:53;;;;;;;3.55;2.40;;;;;;;3.25;82.32;102960.41;5058153;27;97195;-30
2023/01/29 06:48:18;;;;;;;2.45;1.67;;;;;;;3.25;82.96;102955.03;5057579;27;96589;-28
2023/01/29 06:50:44;;;;;;;1.73;1.38;;;;;;;3.24;82.40;102943.41;5058194;27;96753;-29
2023/01/29 06:53:10;;;;;;;3.08;1.85;;;;;;;3.24;82.22;102942.53;5056300;27;100983;-30
2023/01/29 06:55:36;;;;;;;2.30;2.10;;;;;;;3.28;82.47;102955.03;5057457;27;97491;-29
2023/01/29 06:58:09;;;;;;;2.40;1.83;;;;;;;3.25;82.22;102945.22;5057926;27;96583;-28
2023/01/29 07:00:35;;;;;;;1.60;1.40;;;;;;;3.25;82.50;102947.91;5056734;27;96773;-29
2023/01/29 07:03:02;;;;;;;2.25;1.90;;;;;;;3.24;82.47;102947.88;5056082;27;101035;-28
2023/01/29 07:05:27;;;;;;;2.33;1.77;;;;;;;3.26;82.65;102948.78;5056658;27;99692;-29
2023/01/29 07:07:53;;;;;;;1.65;1.08;;;;;;;3.25;82.40;102937.19;5057893;27;96714;-28
2023/01/29 07:10:19;;;;;;;1.33;1.17;;;;;;;3.28;82.58;102944.31;5057612;27;97878;-29
2023/01/29 07:12:44;;;;;;;1.88;1.63;;;;;;;3.29;82.30;102943.44;5056800;27;98822;-28
2023/01/29 07:15:11;;;;;;;1.77;1.48;;;;;;;3.26;82.45;102941.63;5057513;27;97774;-30
2023/01/29 07:17:37;;;;;;;2.08;1.70;;;;;;;3.28;82.19;102944.31;5056211;27;96714;-29
2023/01/29 07:20:02;;;;;;;2.15;1.35;;;;;;;3.26;82.59;102947.00;5057905;27;96765;-29
2023/01/29 07:22:28;;;;;;;1.38;1.20;;;;;;;3.27;82.71;102951.47;5057216;27;97405;-28
2023/01/29 07:24:53;;;;;;;2.08;1.13;;;;;;;3.27;82.31;102951.47;5056532;27;99669;-29
2023/01/29 07:27:18;;;;;;;1.83;1.65;;;;;;;3.29;82.59;102951.47;5056190;27;96548;-28
2023/01/29 07:29:44;;;;;;;4.38;1.63;;;;;;;3.30;82.36;102946.13;5058045;27;96873;-29
2023/01/29 07:32:09;;;;;;;2.55;2.03;;;;;;;3.28;82.39;102945.22;5057049;27;101522;-29
2023/01/29 07:34:34;;;;;;;2.22;1.77;;;;;;;3.27;82.26;102940.75;5057288;27;97359;-28
2023/01/29 07:37:00;;;;;;;1.40;1.10;;;;;;;3.25;82.53;102945.22;5056759;27;96607;-29
2023/01/29 07:39:25;;;;;;;2.75;2.47;;;;;;;3.27;82.59;102953.28;5055625;27;96880;-29
2023/01/29 07:41:50;;;;;;;3.13;2.08;;;;;;;3.26;82.25;102935.41;5056912;27;99261;-28
2023/01/29 07:44:16;;;;;;;2.22;1.63;;;;;;;3.31;82.41;102947.94;5056938;27;99174;-28
2023/01/29 07:46:41;;;;;;;1.63;1.48;;;;;;;3.30;82.28;102945.22;5057205;27;96402;-28
2023/01/29 07:49:07;;;;;;;3.35;2.28;;;;;;;3.31;82.33;102934.53;5057289;27;96728;-30
2023/01/29 07:51:32;;;;;;;2.85;1.58;;;;;;;3.31;82.51;102938.97;5055720;27;97798;-29
2023/01/29 07:53:57;;;;;;;2.15;1.85;;;;;;;3.32;82.25;102939.00;5057162;27;98155;-28
2023/01/29 07:56:23;;;;;;;2.53;1.73;;;;;;;3.33;82.35;102932.72;5056613;27;96782;-29
2023/01/29 07:58:48;;;;;;;2.08;1.35;;;;;;;3.30;81.85;102935.41;5057536;27;96780;-29
2023/01/29 08:01:14;;;;;;;2.40;2.20;;;;;;;3.34;82.15;102939.00;5056447;27;97831;-30
2023/01/29 08:03:39;;;;;;;2.15;1.42;;;;;;;3.35;82.17;102940.78;5056493;27;98948;-28
2023/01/29 08:06:04;;;;;;;2.72;2.08;;;;;;;3.35;81.79;102935.41;5057235;27;96549;-29
2023/01/29 08:08:30;;;;;;;2.05;1.50;;;;;;;3.32;81.86;102936.31;5056797;27;96772;-28
2023/01/29 08:10:55;;;;;;;1.77;1.52;;;;;;;3.33;82.35;102934.50;5056713;27;97829;-29
2023/01/29 08:13:20;;;;;;;2.95;1.75;;;;;;;3.33;82.16;102935.41;5056475;27;97268;-29
2023/01/29 08:15:46;;;;;;;3.75;2.15;;;;;;;3.31;82.26;102929.19;5056734;27;96596;-29
2023/01/29 08:18:12;;;;;;;1.98;1.17;;;;;;;3.33;82.14;102929.16;5056998;27;96806;-29
2023/01/29 08:20:38;;;;;;;2.58;1.77;;;;;;;3.29;82.25;102933.63;5055041;27;101139;-29
2023/01/29 08:23:15;;;;;;;1.80;1.45;;;;;;;3.32;82.53;102933.63;5055728;27;99380;-29
2023/01/29 08:25:41;;;;;;;3.42;2.22;;;;;;;3.31;82.13;102923.81;5054430;27;96654;-29
2023/01/29 08:28:07;;;;;;;2.10;1.58;;;;;;;3.30;82.14;102921.13;5055252;27;96774;-28
2023/01/29 08:30:33;;;;;;;2.53;1.90;;;;;;;3.30;82.02;102907.75;5054747;27;101460;-28
2023/01/29 08:32:59;;;;;;;1.65;1.45;;;;;;;3.29;82.05;102912.22;5056172;27;97274;-28
2023/01/29 08:35:25;;;;;;;2.20;1.67;;;;;;;3.34;82.22;102906.84;5055049;27;96561;-28
2023/01/29 08:37:56;;;;;;;2.05;1.67;;;;;;;3.35;82.43;102909.53;5056151;27;96945;-28
2023/01/29 08:40:22;;;;;;;1.98;1.52;;;;;;;3.36;82.13;102905.97;5055919;27;99511;-29
2023/01/29 08:42:48;;;;;;;1.85;1.75;;;;;;;3.37;82.51;102906.84;5056550;27;97942;-28
2023/01/29 08:45:13;;;;;;;2.08;1.73;;;;;;;3.35;82.47;102906.84;5056036;27;96606;-30
2023/01/29 08:47:48;;;;;;;3.38;2.28;;;;;;;3.36;82.54;102908.66;5056354;27;96755;-28
2023/01/29 08:50:15;;;;;;;1.70;1.55;;;;;;;3.38;82.40;102898.84;5053910;27;101176;-29
2023/01/29 08:52:40;;;;;;;1.98;1.58;;;;;;;3.38;82.56;102896.16;5054427;27;100667;-29
2023/01/29 08:55:06;;;;;;;2.65;1.77;;;;;;;3.35;82.32;102890.78;5056112;27;96541;-28
2023/01/29 08:57:31;;;;;;;2.22;2.03;;;;;;;3.39;82.69;102897.03;5056143;27;96758;-29
2023/01/29 08:59:56;;;;;;;2.03;1.83;;;;;;;3.40;82.63;102901.50;5056287;27;97403;-28
2023/01/29 09:02:22;;;;;;;1.75;1.63;;;;;;;3.41;82.64;102892.59;5055024;27;99144;-29
2023/01/29 09:04:47;;;;;;;2.05;1.80;;;;;;;3.42;82.59;102894.34;5056191;27;96642;-30
2023/01/29 09:07:12;;;;;;;3.22;2.03;;;;;;;3.42;82.82;102889.00;5056262;27;96801;-29
2023/01/29 09:09:37;;;;;;;2.17;1.77;;;;;;;3.43;82.41;102889.88;5055725;27;97901;-29
2023/01/29 09:12:03;;;;;;;3.22;1.42;;;;;;;3.43;82.15;102882.75;5055696;27;97784;-28
2023/01/29 09:14:28;;;;;;;2.00;1.83;;;;;;;3.45;82.25;102891.69;5055738;27;96630;-29
2023/01/29 09:16:54;;;;;;;3.20;2.22;;;;;;;3.47;82.24;102887.22;5055850;27;96731;-30
2023/01/29 09:19:19;;;;;;;3.30;2.13;;;;;;;3.48;82.61;102886.34;5055463;27;97494;-30
2023/01/29 09:21:44;;;;;;;2.17;1.83;;;;;;;3.48;82.21;102881.00;5055321;27;97823;-28
2023/01/29 09:24:10;;;;;;;3.83;2.40;;;;;;;3.51;82.48;102890.81;5053466;27;96780;-29
2023/01/29 09:26:35;;;;;;;3.20;2.45;;;;;;;3.51;82.37;102890.81;5055984;27;96695;-29
2023/01/29 09:29:00;;;;;;;3.00;1.98;;;;;;;3.58;82.49;102887.25;5055103;27;98970;-30
2023/01/29 09:31:26;;;;;;;2.97;1.67;;;;;;;3.58;82.35;102888.13;5055833;27;97050;-29
2023/01/29 09:33:51;;;;;;;1.95;1.75;;;;;;;3.59;82.15;102880.97;5055544;27;96668;-29
2023/01/29 09:36:16;;;;;;;2.85;2.17;;;;;;;3.61;82.50;102888.13;5055266;27;96762;-29
2023/01/29 09:38:42;;;;;;;2.50;1.88;;;;;;;3.62;82.41;102889.00;5054875;27;97906;-30
2023/01/29 09:41:32;;;;;;;3.70;2.58;;;;;;;3.66;82.52;102888.13;5055336;27;97341;-28
2023/01/29 09:44:17;;;;;;;2.50;1.75;;;;;;;3.66;82.19;102893.47;5055299;27;96548;-28
2023/01/29 09:46:47;;;;;;;4.82;2.13;;;;;;;3.70;82.04;102889.03;5053896;27;96809;-29
2023/01/29 09:49:27;;;;;;;2.63;1.73;;;;;;;3.69;81.95;102892.59;5053608;27;100843;-29
2023/01/29 09:52:00;;;;;;;2.80;2.38;;;;;;;3.71;82.26;102899.72;5053645;27;100791;-28
2023/01/29 09:54:35;;;;;;;3.15;2.00;;;;;;;3.72;82.20;102900.63;5053668;27;96711;-28
2023/01/29 09:57:01;;;;;;;3.58;2.17;;;;;;;3.70;82.30;102883.66;5053956;27;96865;-28
2023/01/29 09:59:30;;;;;;;2.00;1.63;;;;;;;3.67;82.48;102876.53;5055054;27;97909;-28
2023/01/29 10:02:04;;;;;;;2.08;1.80;;;;;;;3.71;82.36;102886.31;5053412;27;100584;-28
2023/01/29 10:04:32;;;;;;;3.58;2.05;;;;;;;3.71;82.12;102875.59;5054475;27;96516;-29
2023/01/29 10:07:24;;;;;;;3.58;2.75;;;;;;;3.70;81.87;102873.84;5055366;27;96756;-28
2023/01/29 10:09:52;;;;;;;2.78;1.92;;;;;;;3.72;82.04;102860.41;5055073;27;98050;-29
2023/01/29 10:12:36;;;;;;;2.33;2.13;;;;;;;3.72;82.26;102855.97;5054720;27;97776;-29
2023/01/29 10:15:44;;;;;;;2.67;1.83;;;;;;;3.73;81.97;102851.50;5057567;27;96536;-29
2023/01/29 10:18:28;;;;;;;2.28;2.08;;;;;;;3.76;81.99;102855.06;5049589;27;96595;-28
2023/01/29 10:20:56;;;;;;;1.77;1.52;;;;;;;3.78;82.02;102861.31;5058454;27;97462;-31
2023/01/29 10:23:37;;;;;;;4.15;2.33;;;;;;;3.78;82.32;102849.69;5058064;27;99311;-29
2023/01/29 10:26:03;;;;;;;2.73;2.30;;;;;;;3.81;81.91;102855.97;5056642;27;96847;-28
2023/01/29 10:28:45;;;;;;;2.53;1.55;;;;;;;3.89;82.05;102857.75;5058407;27;96796;-30
2023/01/29 10:31:35;;;;;;;1.95;1.33;;;;;;;3.89;81.97;102855.97;5056353;27;100844;-28
2023/01/29 10:34:37;;;;;;;2.28;1.85;;;;;;;3.92;82.06;102855.06;5058649;27;96621;-28
2023/01/29 10:37:14;;;;;;;4.65;2.70;;;;;;;3.87;82.15;102838.09;5058437;27;96632;-29
2023/01/29 10:39:40;;;;;;;2.47;2.00;;;;;;;3.92;82.06;102838.97;5056984;27;96762;-28
2023/01/29 10:42:37;;;;;;;3.47;2.53;;;;;;;3.88;82.35;102837.19;5057975;27;97243;-28
2023/01/29 10:45:21;;;;;;;4.95;2.22;;;;;;;3.92;82.00;102849.69;5056120;27;100990;-28
2023/01/29 10:47:58;;;;;;;3.30;2.00;;;;;;;3.92;82.15;102838.97;5058241;27;96595;-30
2023/01/29 10:50:45;;;;;;;3.72;2.47;;;;;;;3.94;81.83;102839.88;5057241;27;96695;-28
2023/01/29 10:53:37;;;;;;;2.65;1.98;;;;;;;3.97;82.08;102829.13;5057795;27;98061;-29
2023/01/29 10:56:20;;;;;;;3.92;1.95;;;;;;;3.96;82.17;102827.34;5057298;27;99681;-29
2023/01/29 10:59:04;;;;;;;2.65;2.05;;;;;;;3.96;82.48;102812.16;5056233;27;96700;-29
2023/01/29 11:01:29;;;;;;;2.38;1.90;;;;;;;3.96;81.95;102809.47;5056456;27;96739;-28
2023/01/29 11:03:58;;;;;;;4.05;3.03;;;;;;;3.94;81.92;102807.69;5055869;27;101046;-29
2023/01/29 11:06:29;;;;;;;4.22;2.72;;;;;;;3.95;82.44;102804.97;5055945;27;101101;-29
2023/01/29 11:09:19;;;;;;;2.47;1.90;;;;;;;3.94;82.51;102796.97;5056365;27;97274;-29
2023/01/29 11:11:53;;;;;;;4.05;2.80;;;;;;;3.92;82.27;102793.41;5057898;27;96785;-33
2023/01/29 11:14:25;;;;;;;2.40;1.90;;;;;;;3.92;82.39;102785.34;5056123;27;100773;-28
2023/01/29 11:16:50;;;;;;;2.80;2.17;;;;;;;3.94;82.37;102792.50;5056420;27;101215;-29
2023/01/29 11:19:16;;;;;;;3.40;2.17;;;;;;;3.95;82.71;102796.94;5057600;27;96635;-29
2023/01/29 11:21:58;;;;;;;2.30;2.10;;;;;;;3.96;82.68;102793.38;5055898;27;97156;-29
2023/01/29 11:24:24;;;;;;;2.35;1.88;;;;;;;3.94;82.63;102780.88;5052078;27;101102;-31
2023/01/29 11:26:53;;;;;;;1.83;1.65;;;;;;;3.99;82.16;102788.00;5053272;27;100001;-28
2023/01/29 11:29:36;;;;;;;2.88;2.38;;;;;;;4.00;82.58;102795.16;5053676;27;97078;-29
2023/01/29 11:32:10;;;;;;;2.88;1.90;;;;;;;4.04;82.98;102791.56;5053671;27;97186;-29
2023/01/29 11:35:12;;;;;;;2.00;1.50;;;;;;;4.08;82.27;102784.41;5053107;27;101348;-29
2023/01/29 11:37:40;;;;;;;3.53;2.17;;;;;;;4.07;82.33;102781.72;5056950;27;99262;-29
2023/01/29 11:40:17;;;;;;;1.25;1.10;;;;;;;4.12;83.00;102780.81;5055895;27;96685;-29
2023/01/29 11:42:43;;;;;;;3.47;2.35;;;;;;;4.15;82.19;102769.19;5057928;27;96861;-27
2023/01/29 11:45:31;;;;;;;2.80;2.40;;;;;;;4.16;82.09;102770.97;5055331;27;100967;-28
2023/01/29 11:47:57;;;;;;;3.83;2.78;;;;;;;4.14;82.63;102762.03;5055419;27;101299;-29
2023/01/29 11:50:26;;;;;;;2.95;2.30;;;;;;;4.16;82.14;102755.75;5055283;27;96456;-30
2023/01/29 11:52:53;;;;;;;1.70;1.60;;;;;;;4.21;82.90;102755.75;5055738;27;96829;-28
2023/01/29 11:55:22;;;;;;;3.35;1.90;;;;;;;4.24;82.60;102758.41;5056440;27;97517;-28
2023/01/29 11:58:10;;;;;;;3.53;2.70;;;;;;;4.25;82.57;102749.47;5055297;27;101424;-29
2023/01/29 12:00:39;;;;;;;6.38;2.42;;;;;;;4.25;82.38;102753.03;5046788;27;96832;-28
2023/01/29 12:03:29;;;;;;;4.82;2.63;;;;;;;4.28;82.22;102754.81;5057049;27;96730;-28
2023/01/29 12:05:59;;;;;;;2.67;2.10;;;;;;;4.25;82.74;102742.31;5056827;27;97522;-28
2023/01/29 12:08:28;;;;;;;3.17;2.45;;;;;;;4.25;82.43;102734.28;5055532;27;101452;-28
2023/01/29 12:11:07;;;;;;;1.48;1.10;;;;;;;4.27;82.46;102736.97;5055598;27;96543;-29
2023/01/29 12:13:34;;;;;;;2.15;1.95;;;;;;;4.28;82.87;102727.13;5056619;27;96905;-29
2023/01/29 12:16:12;;;;;;;2.38;1.50;;;;;;;4.29;82.83;102721.75;5054424;27;101099;-28
2023/01/29 12:18:45;;;;;;;2.30;1.88;;;;;;;4.32;82.94;102719.03;5054772;27;101105;-29
2023/01/29 12:21:19;;;;;;;3.80;2.50;;;;;;;4.35;82.62;102713.66;5057092;27;96513;-29